Latest Weather Observations for Yarram Airport

IDV60801

Issued at 9:31 pm EDT Saturday 28 March 2015 (issued every 30 minutes, with the page automatically refreshed every 10 minutes)

About weather observations | Map of weather stations | Latest weather observations for VIC | Other Formats
Station Details ID: 085151 Name: YARRAM AIRPORT Lat: -38.56 Lon: 146.75 Height: 17.9 m
Data from the previous 72 hours. | See also: Recent months at Yarram Airport
Date/Time
EDT
Temp
°C
App
Temp
°C
Dew
Point
Rel
Hum
%
Delta-T
°C
Wind Press
QNH
hPa
Press
MSL
hPa
Rain
since 9 am
mm
Dir
 
Spd
km/h
Gust
km/h
Spd
kts
Gust
kts
28/09:30pm 13.2 12.6 11.6 90 0.8 NW 6 7 3 4 1022.7 1022.7 0.0
28/09:00pm 13.9 13.3 11.8 87 1.1 WNW 6 7 3 4 1022.5 1022.5 0.0
28/08:30pm 14.7 13.6 12.0 84 1.5 W 9 13 5 7 1022.4 1022.4 0.0
28/08:00pm 14.8 12.6 12.1 84 1.5 WSW 15 20 8 11 1022.4 1022.4 0.0
28/07:30pm 15.1 12.9 12.1 82 1.6 WSW 15 19 8 10 1022.3 1022.3 0.0
28/07:00pm 15.6 13.7 11.8 78 2.1 WSW 13 15 7 8 1022.2 1022.2 0.0
28/06:30pm 16.1 13.8 11.9 76 2.3 WSW 15 20 8 11 1022.2 1022.2 0.0
28/06:00pm 16.4 13.9 12.2 76 2.3 WSW 17 20 9 11 1022.2 1022.2 0.0
28/05:30pm 16.2 14.0 12.0 76 2.3 WSW 15 20 8 11 1022.1 1022.1 0.0
28/05:00pm 16.4 13.9 12.4 77 2.2 W 17 22 9 12 1022.1 1022.1 0.0
28/04:30pm 16.3 13.3 12.1 76 2.3 W 19 26 10 14 1022.4 1022.4 0.0
28/04:00pm 16.4 13.4 12.0 75 2.4 WSW 19 22 10 12 1022.5 1022.5 0.0
28/03:30pm 16.9 13.8 12.2 74 2.6 W 20 24 11 13 1022.6 1022.6 0.0
28/03:00pm 16.9 13.9 11.8 72 2.8 SW 19 24 10 13 1022.8 1022.8 0.0
28/02:30pm 17.3 14.1 12.0 71 2.9 W 20 26 11 14 1023.0 1023.0 0.0
28/02:00pm 17.3 14.1 11.1 67 3.3 WSW 19 30 10 16 1023.2 1023.2 0.0
28/01:30pm 17.2 14.5 11.7 70 3.0 WSW 17 22 9 12 1023.5 1023.5 0.0
28/01:00pm 17.5 16.1 10.9 65 3.5 W 9 17 5 9 1023.7 1023.7 0.0
28/12:30pm 16.4 14.1 11.6 73 2.6 WSW 15 20 8 11 1024.0 1024.0 0.0
28/12:00pm 16.0 14.1 11.8 76 2.3 WSW 13 19 7 10 1024.3 1024.3 0.0
28/11:30am 15.7 13.1 11.9 78 2.1 W 17 20 9 11 1024.7 1024.7 0.0
28/11:00am 15.6 12.5 11.6 77 2.1 W 19 24 10 13 1024.8 1024.8 0.0
28/10:30am 15.4 12.2 12.0 80 1.8 W 20 28 11 15 1024.9 1024.9 0.0
28/10:00am 14.9 11.6 11.5 80 1.8 W 20 28 11 15 1024.9 1024.9 0.0
28/09:30am 14.0 11.6 11.3 84 1.4 WNW 15 19 8 10 1024.7 1024.7 0.0
28/09:00am 13.5 11.9 11.4 87 1.1 W 11 15 6 8 1024.5 1024.5 4.8
28/08:30am 13.0 11.7 11.1 88 1.0 WNW 9 13 5 7 1024.3 1024.3 4.8
28/08:00am 12.6 10.8 10.7 88 1.0 WNW 11 15 6 8 1024.0 1024.0 4.8
28/07:30am 12.4 9.8 10.6 89 0.9 W 15 19 8 10 1023.7 1023.7 4.8
28/07:00am 12.2 10.4 10.8 91 0.7 WNW 11 15 6 8 1023.6 1023.6 4.8
28/06:30am 12.2 10.4 10.9 92 0.7 W 11 13 6 7 1023.3 1023.3 4.8
28/06:00am 12.2 10.5 11.1 93 0.6 WNW 11 13 6 7 1023.2 1023.2 4.8
28/05:30am 11.9 10.1 10.8 93 0.6 W 11 13 6 7 1023.1 1023.1 4.8
28/05:00am 11.9 9.6 10.5 91 0.7 WNW 13 15 7 8 1022.8 1022.8 4.8
28/04:30am 11.7 9.4 10.3 91 0.7 WNW 13 17 7 9 1022.8 1022.8 4.8
28/04:00am 10.9 8.3 9.3 90 0.8 NW 13 13 7 7 1022.8 1022.8 4.8
28/03:30am 10.6 8.7 9.2 91 0.7 NW 9 13 5 7 1022.7 1022.7 4.8
28/03:00am 10.7 8.1 9.5 92 0.6 W 13 19 7 10 1022.9 1022.9 4.8
28/02:30am 11.0 8.4 9.4 90 0.8 WNW 13 15 7 8 1022.9 1022.9 4.8
28/02:00am 11.4 7.8 9.7 89 0.9 WNW 19 22 10 12 1022.8 1022.8 4.8
28/01:30am 11.3 8.0 9.6 89 0.9 WNW 17 20 9 11 1022.9 1022.9 4.8
28/01:00am 11.2 7.5 9.5 89 0.9 W 19 22 10 12 1022.8 1022.8 4.8
28/12:30am 11.3 7.6 9.4 88 1.0 W 19 24 10 13 1022.9 1022.9 4.8
28/12:00am 11.4 7.8 9.7 89 0.9 WNW 19 22 10 12 1023.0 1023.0 4.8
 
Date/Time
EDT
Temp
°C
App
Temp
°C
Dew
Point
Rel
Hum
%
Delta-T
°C
Wind Press
QNH
hPa
Press
MSL
hPa
Rain
since 9 am
mm
Dir
 
Spd
km/h
Gust
km/h
Spd
kts
Gust
kts
27/11:30pm 11.6 8.4 10.0 90 0.8 W 17 24 9 13 1023.0 1023.0 4.8
27/11:00pm 11.7 8.2 10.3 91 0.7 W 19 22 10 12 1022.8 1022.8 4.8
27/10:30pm 12.2 9.1 10.3 88 1.0 W 17 22 9 12 1022.8 1022.8 4.8
27/10:00pm 12.4 8.8 10.5 88 1.0 W 20 26 11 14 1022.6 1022.6 4.8
27/09:30pm 12.8 8.6 11.0 89 0.9 W 24 30 13 16 1022.3 1022.3 4.8
27/09:00pm 13.0 8.5 11.4 90 0.8 W 26 35 14 19 1022.1 1022.1 4.8
27/08:30pm 12.9 8.8 11.5 91 0.7 W 24 32 13 17 1021.9 1021.9 4.8
27/08:00pm 13.1 8.7 11.8 92 0.7 W 26 35 14 19 1021.3 1021.3 4.8
27/07:30pm 13.6 8.5 11.8 89 1.0 W 30 39 16 21 1021.0 1021.0 4.8
27/07:00pm 13.8 9.0 11.8 88 1.1 W 28 37 15 20 1020.9 1020.9 4.8
27/06:30pm 14.0 8.5 12.4 90 0.9 W 33 46 18 25 1020.5 1020.5 4.8
27/06:00pm 13.9 8.5 12.8 93 0.6 WSW 33 41 18 22 1020.0 1020.0 4.8
27/05:30pm 14.2 8.8 12.8 91 0.8 WSW 33 44 18 24 1020.0 1020.0 4.6
27/05:00pm 14.7 9.3 12.7 88 1.1 WSW 33 44 18 24 1019.6 1019.6 4.4
27/04:30pm 14.7 8.1 12.6 87 1.1 W 39 54 21 29 1019.0 1019.0 4.4
27/04:01pm 15.4 8.1 12.7 84 1.5 W 43 63 23 34 1018.7 1018.7 4.4
27/04:00pm 15.6 8.4 13.1 85 1.4 W 43 54 23 29 1018.7 1018.7 4.4
27/03:40pm 14.8 7.4 12.5 86 1.3 W 43 63 23 34 1018.8 1018.8 4.4
27/03:30pm 14.8 7.6 13.2 90 0.9 W 43 57 23 31 1018.8 1018.8 4.4
27/03:00pm 14.8 8.0 13.2 90 0.9 W 41 59 22 32 1018.8 1018.8 4.4
27/02:30pm 14.3 7.3 12.5 89 1.0 WSW 41 54 22 29 1019.0 1019.0 4.4
27/02:00pm 13.9 6.5 12.6 92 0.7 W 43 61 23 33 1019.0 1019.0 4.4
27/01:31pm 14.7 6.9 11.7 82 1.6 WSW 44 63 24 34 1018.8 1018.8 4.0
27/01:30pm 14.8 7.0 11.9 83 1.6 WSW 44 59 24 32 1018.9 1018.9 4.0
27/01:00pm 14.7 7.1 12.4 86 1.3 WSW 44 65 24 35 1018.9 1018.9 4.0
27/12:30pm 15.9 8.4 12.1 78 2.1 WSW 43 63 23 34 1018.4 1018.4 4.0
27/12:27pm 15.6 8.0 11.8 78 2.1 WSW 43 63 23 34 1018.4 1018.4 4.0
27/12:00pm 14.3 7.6 12.3 88 1.1 WSW 39 54 21 29 1018.5 1018.5 4.0
27/11:31am 13.6 8.1 12.5 93 0.6 W 33 56 18 30 1018.3 1018.3 3.8
27/11:30am 13.6 8.3 12.5 93 0.6 W 32 44 17 24 1018.3 1018.3 3.8
27/11:00am 13.0 7.1 12.5 97 0.3 W 35 50 19 27 1018.2 1018.2 3.0
27/10:30am 14.7 8.0 12.4 86 1.3 W 39 57 21 31 1018.0 1018.0 0.4
27/10:03am 13.7 7.3 12.1 90 0.9 WSW 37 57 20 31 1017.8 1017.8 0.4
27/10:00am 13.6 7.3 12.2 91 0.8 WSW 37 54 20 29 1017.7 1017.7 0.4
27/09:30am 13.4 5.9 12.0 91 0.8 WSW 43 61 23 33 1017.3 1017.3 0.2
27/09:00am 13.3 6.1 12.0 92 0.7 W 41 59 22 32 1016.5 1016.5 7.4
27/08:46am 12.8 5.6 11.9 94 0.5 WSW 41 59 22 32 1016.3 1016.3 7.4
27/08:39am 12.6 6.3 11.0 90 0.8 WSW 35 54 19 29 1016.4 1016.4 7.0
27/08:32am 13.3 7.0 11.2 87 1.1 W 35 54 19 29 1016.0 1016.0 5.8
27/08:30am 13.3 6.7 11.2 87 1.1 W 37 54 20 29 1015.9 1015.9 5.8
27/08:00am 12.9 6.1 10.8 87 1.1 W 37 52 20 28 1015.4 1015.4 5.8
27/07:50am 12.7 6.3 10.8 88 1.0 WNW 35 56 19 30 1015.1 1015.1 5.8
27/07:30am 12.2 6.1 10.6 90 0.8 WNW 33 48 18 26 1015.0 1015.0 5.8
27/07:17am 12.1 5.2 10.3 89 0.9 WNW 37 59 20 32 1015.0 1015.0 5.8
27/07:00am 12.1 5.9 10.2 88 1.0 WNW 33 46 18 25 1015.1 1015.1 5.6
27/06:30am 11.9 5.6 11.0 94 0.5 WNW 35 48 19 26 1015.0 1015.0 5.6
27/06:00am 12.6 7.4 10.1 85 1.3 WNW 28 37 15 20 1014.6 1014.6 4.8
27/05:30am 12.3 7.4 10.0 86 1.2 WNW 26 46 14 25 1014.7 1014.7 4.8
27/05:00am 12.2 7.8 10.3 88 1.0 W 24 32 13 17 1014.7 1014.7 4.8
27/04:30am 12.3 7.1 10.4 88 1.0 W 28 37 15 20 1014.8 1014.8 4.8
27/04:00am 12.7 7.3 10.9 89 0.9 W 30 43 16 23 1014.8 1014.8 4.8
27/03:30am 12.2 7.9 10.8 91 0.7 WNW 24 32 13 17 1014.6 1014.6 4.8
27/03:00am 11.9 8.7 11.4 97 0.3 WNW 19 28 10 15 1014.8 1014.8 4.6
27/02:30am 12.2 8.0 11.1 93 0.6 WNW 24 33 13 18 1014.7 1014.7 4.0
27/02:00am 12.3 8.0 10.9 91 0.7 WNW 24 33 13 18 1014.7 1014.7 3.4
27/01:30am 12.3 8.3 10.5 89 0.9 WNW 22 32 12 17 1014.7 1014.7 3.4
27/01:00am 12.1 8.1 10.3 89 0.9 WNW 22 32 12 17 1014.8 1014.8 3.2
27/12:30am 12.0 7.7 10.7 92 0.7 WNW 24 32 13 17 1014.9 1014.9 3.2
27/12:00am 12.1 7.4 10.5 90 0.8 WNW 26 35 14 19 1015.0 1015.0 2.2
 
Date/Time
EDT
Temp
°C
App
Temp
°C
Dew
Point
Rel
Hum
%
Delta-T
°C
Wind Press
QNH
hPa
Press
MSL
hPa
Rain
since 9 am
mm
Dir
 
Spd
km/h
Gust
km/h
Spd
kts
Gust
kts
26/11:30pm 11.9 7.9 10.5 91 0.7 WNW 22 30 12 16 1014.7 1014.7 1.6
26/11:00pm 12.2 6.9 9.8 85 1.2 WNW 28 41 15 22 1014.5 1014.5 0.6
26/10:30pm 11.8 5.1 9.5 86 1.2 NW 35 48 19 26 1014.2 1014.2 0.4
26/10:00pm 12.2 4.8 8.5 78 1.8 NW 37 54 20 29 1014.1 1014.1 0.0
26/09:30pm 11.9 2.1 8.6 80 1.6 NW 50 76 27 41 1013.6 1013.6 0.0
26/09:00pm 12.7 2.5 7.0 68 2.7 NW 50 80 27 43 1013.2 1013.2 0.0
26/08:30pm 12.8 2.9 6.4 65 3.0 NW 48 74 26 40 1013.5 1013.5 0.0
26/08:24pm 13.0 3.7 6.1 63 3.3 NW 44 74 24 40 1013.4 1013.4 0.0
26/08:04pm 12.9 5.9 5.8 62 3.3 NW 32 54 17 29 1014.1 1014.1 0.0
26/08:00pm 12.8 5.7 5.7 62 3.3 NW 32 48 17 26 1014.1 1014.1 0.0
26/07:35pm 13.4 7.0 5.1 57 3.9 NW 28 50 15 27 1014.3 1014.3 0.0
26/07:30pm 12.9 6.4 4.8 58 3.7 NW 28 35 15 19 1014.3 1014.3 0.0
26/07:00pm 14.4 4.9 4.1 50 4.7 NW 43 63 23 34 1014.4 1014.4 0.0
26/06:31pm 16.6 9.2 1.9 37 6.6 WNW 30 48 16 26 1014.1 1014.1 0.0
26/06:30pm 16.6 9.5 1.5 36 6.7 WNW 28 43 15 23 1014.1 1014.1 0.0
26/06:00pm 16.9 9.4 1.4 35 6.9 NW 30 44 16 24 1013.6 1013.6 0.0
26/05:30pm 17.3 9.2 0.9 33 7.2 NW 33 46 18 25 1013.5 1013.5 0.0
26/05:03pm 18.0 8.8 1.1 32 7.5 NW 39 57 21 31 1013.4 1013.4 0.0
26/05:00pm 17.1 8.1 0.3 32 7.3 NW 37 52 20 28 1013.5 1013.5 0.0
26/04:34pm 18.2 10.2 0.4 30 7.8 NW 32 56 17 30 1013.9 1013.9 0.0
26/04:30pm 18.3 11.0 2.2 34 7.3 NW 30 44 16 24 1013.9 1013.9 0.0
26/04:00pm 17.0 7.5 1.8 36 6.8 NW 41 59 22 32 1014.2 1014.2 0.0
26/03:32pm 18.2 10.0 2.9 36 7.1 WNW 35 54 19 29 1014.5 1014.5 0.0
26/03:30pm 18.3 9.8 3.4 37 7.0 WNW 37 54 20 29 1014.5 1014.5 0.0
26/03:19pm 18.0 9.6 3.5 38 6.8 WNW 37 59 20 32 1014.3 1014.3 0.0
26/03:00pm 17.4 8.5 3.0 38 6.6 WNW 39 54 21 29 1014.7 1014.7 0.0
26/02:30pm 17.6 9.2 3.5 39 6.6 WNW 37 50 20 27 1014.7 1014.7 0.0
26/02:00pm 16.4 9.4 4.1 44 5.7 W 30 44 16 24 1015.3 1015.3 0.0
26/01:30pm 16.1 8.5 3.9 44 5.7 WNW 33 48 18 26 1015.4 1015.4 0.0
26/01:00pm 16.9 8.8 5.2 46 5.6 WNW 37 48 20 26 1015.8 1015.8 0.0
26/12:30pm 16.7 7.0 4.1 43 5.9 NW 44 57 24 31 1015.7 1015.7 0.0
26/12:21pm 16.5 8.6 4.5 45 5.6 WNW 35 56 19 30 1015.7 1015.7 0.0
26/12:00pm 16.1 8.3 5.1 48 5.2 NW 35 50 19 27 1015.7 1015.7 0.0
26/11:47am 16.2 9.3 6.3 52 4.8 WNW 32 50 17 27 1015.9 1015.9 0.0
26/11:30am 14.8 7.7 6.6 58 4.0 WNW 33 46 18 25 1016.2 1016.2 0.0
26/11:00am 13.9 7.7 6.3 60 3.6 WNW 28 39 15 21 1016.4 1016.4 0.0
26/10:47am 13.9 7.8 6.5 61 3.6 WNW 28 46 15 25 1016.6 1016.6 0.0
26/10:30am 13.8 6.7 5.7 58 3.8 WNW 32 43 17 23 1016.6 1016.6 0.0
26/10:00am 13.6 7.3 7.4 66 3.0 NW 30 43 16 23 1016.5 1016.5 0.0
26/09:30am 11.8 5.4 6.9 72 2.3 NW 30 39 16 21 1016.2 1016.2 0.0
26/09:00am 11.6 5.7 7.3 75 2.1 NW 28 39 15 21 1016.1 1016.1 0.0
26/08:30am 11.1 5.1 7.0 76 2.0 WNW 28 39 15 21 1015.8 1015.8 0.0
26/08:00am 10.9 6.7 7.4 79 1.7 WNW 19 26 10 14 1015.4 1015.4 0.0
26/07:30am 11.1 6.7 7.6 79 1.7 WNW 20 30 11 16 1015.4 1015.4 0.0
26/07:00am 11.6 7.4 7.5 76 2.0 W 19 24 10 13 1015.0 1015.0 0.0
26/06:30am 12.0 7.3 7.7 75 2.1 WNW 22 28 12 15 1014.6 1014.6 0.0
26/06:00am 12.1 7.0 7.6 74 2.2 WNW 24 32 13 17 1014.2 1014.2 0.0
26/05:30am 11.9 7.9 9.1 83 1.4 WNW 20 28 11 15 1014.1 1014.1 0.0
26/05:00am 12.2 6.7 9.2 82 1.5 WNW 28 35 15 19 1013.9 1013.9 0.0
26/04:30am 12.5 7.3 9.0 79 1.8 W 26 37 14 20 1013.9 1013.9 0.0
26/04:00am 12.2 8.3 9.6 84 1.3 WNW 20 30 11 16 1013.7 1013.7 0.0
26/03:30am 11.0 9.3 9.8 92 0.6 NNE 9 11 5 6 1013.2 1013.2 0.0
26/03:00am 12.1 10.5 10.2 88 1.0 N 9 11 5 6 1013.3 1013.3 0.0
26/02:30am 13.9 13.1 11.6 86 1.2 NW 7 9 4 5 1013.6 1013.6 0.0
26/02:00am 14.5 12.9 12.7 89 1.0 NNW 13 15 7 8 1013.7 1013.7 0.0
26/01:30am 14.4 12.2 13.4 94 0.6 N 17 20 9 11 1013.6 1013.6 0.0
26/01:00am 13.9 13.2 13.1 95 0.4 N 9 13 5 7 1013.7 1013.7 0.0
26/12:30am 14.1 13.9 13.5 96 0.3 N 7 9 4 5 1013.7 1013.7 0.0
26/12:00am 13.5 12.3 12.9 96 0.3 N 11 13 6 7 1013.6 1013.6 0.0
 
Date/Time
EDT
Temp
°C
App
Temp
°C
Dew
Point
Rel
Hum
%
Delta-T
°C
Wind Press
QNH
hPa
Press
MSL
hPa
Rain
since 9 am
mm
Dir
 
Spd
km/h
Gust
km/h
Spd
kts
Gust
kts
25/11:30pm 13.6 12.5 13.1 97 0.3 NNE 11 15 6 8 1013.8 1013.8 0.0
25/11:00pm 13.2 12.3 12.7 97 0.3 NE 9 11 5 6 1014.0 1014.0 0.0
25/10:30pm 12.7 11.3 12.1 96 0.3 NNE 11 13 6 7 1014.2 1014.2 0.0
25/10:00pm 12.8 11.4 12.2 96 0.3 NNE 11 13 6 7 1014.4 1014.4 0.0

Other Formats:

Comma delimited format used in spreadsheet applications
http://www.bom.gov.au/fwo/IDV60801/IDV60801.95890.axf

JavaScript Object Notation format (JSON) in row-major order
http://www.bom.gov.au/fwo/IDV60801/IDV60801.95890.json